Terminal Aerodrome Forecast
Issued by NWS Sioux Falls, SD

Home | Current Version | Previous Version | Graphics & Text | Print | Product List | Glossary On
Versions: 1 2 3 4 5 6 7 8 9 10 11 12 13 14 15 16 17 18 19 20
255
FTUS43 KFSD 201739
TAFHON
TAF
KHON 201739Z 2018/2118 22011KT P6SM SKC
     FM210000 17007KT P6SM SKC
     FM211000 15011KT P6SM FEW250 WS010/16040KT
     FM211500 15014G22KT P6SM FEW250=

USA.gov is the U.S. government's official web portal to all federal, state and local government web resources and services.